createdAt,value
2023-01-08T00:01:11.948Z,96724.38
2023-01-08T00:03:39.617Z,96710.56
2023-01-08T00:06:09.214Z,96705.38
2023-01-08T00:08:35.690Z,96710.13
2023-01-08T00:11:02.177Z,96712.91
2023-01-08T00:13:29.458Z,96716.53
2023-01-08T00:15:56.034Z,96717.94
2023-01-08T00:18:22.576Z,96718.78
2023-01-08T00:20:49.094Z,96719.59
2023-01-08T00:23:17.817Z,96720.97
2023-01-08T00:25:44.732Z,96712.38
2023-01-08T00:28:11.461Z,96700.75
2023-01-08T00:30:38.185Z,96681.97
2023-01-08T00:33:04.734Z,96676.09
2023-01-08T00:35:31.260Z,96670.72
2023-01-08T00:37:57.757Z,96659.06
2023-01-08T00:40:24.254Z,96661.56
2023-01-08T00:42:50.691Z,96665.59
2023-01-08T00:45:17.167Z,96670.41
2023-01-08T00:47:43.673Z,96667.22
2023-01-08T00:50:10.924Z,96667.84
2023-01-08T00:52:37.334Z,96678.34
2023-01-08T00:55:04.051Z,96666.34
2023-01-08T00:57:37.943Z,96659.88
2023-01-08T01:00:07.126Z,96646.78
2023-01-08T01:02:35.351Z,96647.47
2023-01-08T01:05:02.145Z,96645.31
2023-01-08T01:07:28.569Z,96651.28
2023-01-08T01:09:55.066Z,96653.75
2023-01-08T01:12:21.598Z,96650.34
2023-01-08T01:14:48.104Z,96650.06
2023-01-08T01:17:14.536Z,96641.44
2023-01-08T01:19:41.351Z,96647.97
2023-01-08T01:22:07.824Z,96636.28
2023-01-08T01:24:34.557Z,96631.66
2023-01-08T01:27:00.993Z,96626.00
2023-01-08T01:29:27.549Z,96632.78
2023-01-08T01:31:57.607Z,96632.88
2023-01-08T01:34:24.389Z,96633.88
2023-01-08T01:36:50.851Z,96641.06
2023-01-08T01:39:17.371Z,96638.53
2023-01-08T01:41:45.571Z,96642.19
2023-01-08T01:44:41.841Z,96644.78
2023-01-08T01:47:25.648Z,96650.88
2023-01-08T01:50:02.422Z,96651.34
2023-01-08T01:52:33.058Z,96639.59
2023-01-08T01:55:01.839Z,96641.75
2023-01-08T01:57:32.991Z,96638.06
2023-01-08T02:00:01.126Z,96636.41
2023-01-08T02:02:27.742Z,96638.84
2023-01-08T02:04:54.255Z,96616.66
2023-01-08T02:07:49.101Z,96621.38
2023-01-08T02:10:47.389Z,96626.25
2023-01-08T02:13:42.522Z,96621.94
2023-01-08T02:16:16.039Z,96623.09
2023-01-08T02:18:42.391Z,96609.44
2023-01-08T02:21:10.214Z,96609.44
2023-01-08T02:23:47.303Z,96615.22
2023-01-08T02:26:13.724Z,96605.09
2023-01-08T02:28:42.430Z,96608.34
2023-01-08T02:31:08.957Z,96599.13
2023-01-08T02:33:35.741Z,96597.97
2023-01-08T02:36:31.977Z,96598.50
2023-01-08T02:39:07.728Z,96594.22
2023-01-08T02:41:56.991Z,96579.03
2023-01-08T02:44:35.686Z,96576.09
2023-01-08T02:47:06.525Z,96573.03
2023-01-08T02:49:39.020Z,96567.25
2023-01-08T02:52:08.401Z,96578.91
2023-01-08T02:54:36.673Z,96571.69
2023-01-08T02:57:08.179Z,96559.88
2023-01-08T02:59:36.074Z,96554.72
2023-01-08T03:02:04.362Z,96555.56
2023-01-08T03:04:37.874Z,96553.69
2023-01-08T03:07:04.438Z,96549.28
2023-01-08T03:09:31.020Z,96547.28
2023-01-08T03:12:11.293Z,96541.59
2023-01-08T03:14:46.542Z,96533.22
2023-01-08T03:17:31.922Z,96532.06
2023-01-08T03:20:25.071Z,96531.91
2023-01-08T03:22:56.150Z,96531.00
2023-01-08T03:25:26.201Z,96536.06
2023-01-08T03:27:57.770Z,96528.00
2023-01-08T03:30:24.872Z,96525.78
2023-01-08T03:32:53.037Z,96524.56
2023-01-08T03:35:22.768Z,96519.78
2023-01-08T03:38:00.374Z,96510.91
2023-01-08T03:40:35.154Z,96520.25
2023-01-08T03:43:01.789Z,96513.84
2023-01-08T03:45:31.537Z,96511.75
2023-01-08T03:47:59.854Z,96510.34
2023-01-08T03:50:31.075Z,96518.16
2023-01-08T03:53:00.601Z,96521.31
2023-01-08T03:55:27.367Z,96508.47
2023-01-08T03:57:53.794Z,96514.41
2023-01-08T04:00:20.566Z,96519.31
2023-01-08T04:02:47.054Z,96512.38
2023-01-08T04:05:13.535Z,96516.09
2023-01-08T04:07:40.046Z,96501.34
2023-01-08T04:10:06.979Z,96505.81
2023-01-08T04:12:33.481Z,96509.56
2023-01-08T04:15:00.123Z,96503.88
2023-01-08T04:17:26.643Z,96503.53
2023-01-08T04:19:53.109Z,96499.16
2023-01-08T04:22:19.554Z,96496.47
2023-01-08T04:24:46.004Z,96508.16
2023-01-08T04:27:12.489Z,96513.44
2023-01-08T04:29:38.938Z,96510.19
2023-01-08T04:32:05.391Z,96517.88
2023-01-08T04:34:31.817Z,96517.88
2023-01-08T04:36:59.005Z,96513.72
2023-01-08T04:39:25.477Z,96518.84
2023-01-08T04:41:51.956Z,96517.94
2023-01-08T04:44:18.411Z,96519.34
2023-01-08T04:46:44.830Z,96525.84
2023-01-08T04:49:12.357Z,96526.09
2023-01-08T04:51:38.957Z,96522.09
2023-01-08T04:54:05.532Z,96519.75
2023-01-08T04:56:32.119Z,96521.78
2023-01-08T04:58:58.924Z,96508.50
2023-01-08T05:01:27.590Z,96521.03
2023-01-08T05:03:56.292Z,96512.91
2023-01-08T05:06:23.087Z,96521.78
2023-01-08T05:08:49.621Z,96527.16
2023-01-08T05:11:16.050Z,96526.75
2023-01-08T05:13:42.591Z,96520.00
2023-01-08T05:16:09.267Z,96523.09
2023-01-08T05:18:35.784Z,96521.47
2023-01-08T05:21:03.158Z,96520.31
2023-01-08T05:23:30.724Z,96519.75
2023-01-08T05:26:01.134Z,96516.41
2023-01-08T05:28:28.253Z,96506.97
2023-01-08T05:30:55.024Z,96506.00
2023-01-08T05:33:22.215Z,96503.25
2023-01-08T05:35:48.895Z,96504.81
2023-01-08T05:38:15.707Z,96503.88
2023-01-08T05:40:42.110Z,96501.59
2023-01-08T05:43:08.745Z,96498.75
2023-01-08T05:45:35.319Z,96499.41
2023-01-08T05:48:06.664Z,96493.50
2023-01-08T05:50:34.149Z,96492.75
2023-01-08T05:53:00.917Z,96495.50
2023-01-08T05:55:27.430Z,96504.16
2023-01-08T05:57:53.869Z,96506.09
2023-01-08T06:00:20.460Z,96503.41
2023-01-08T06:02:48.395Z,96506.34
2023-01-08T06:05:15.407Z,96507.91
2023-01-08T06:07:41.965Z,96497.53
2023-01-08T06:10:08.850Z,96491.31
2023-01-08T06:12:35.355Z,96495.09
2023-01-08T06:15:02.000Z,96487.25
2023-01-08T06:17:28.407Z,96495.91
2023-01-08T06:19:54.821Z,96488.81
2023-01-08T06:22:21.276Z,96488.81
2023-01-08T06:24:47.774Z,96481.88
2023-01-08T06:27:14.348Z,96480.75
2023-01-08T06:29:40.787Z,96487.50
2023-01-08T06:32:07.315Z,96480.50
2023-01-08T06:34:33.769Z,96474.69
2023-01-08T06:37:00.230Z,96466.38
2023-01-08T06:39:26.906Z,96473.31
2023-01-08T06:41:53.395Z,96464.94
2023-01-08T06:44:20.081Z,96464.41
2023-01-08T06:46:46.886Z,96473.31
2023-01-08T06:49:14.820Z,96463.09
2023-01-08T06:51:41.323Z,96468.81
2023-01-08T06:54:07.829Z,96460.78
2023-01-08T06:56:45.359Z,96468.63
2023-01-08T06:59:18.978Z,96464.63
2023-01-08T07:01:45.522Z,96463.78
2023-01-08T07:04:12.023Z,96456.09
2023-01-08T07:06:38.491Z,96452.53
2023-01-08T07:09:04.973Z,96443.19
2023-01-08T07:11:31.405Z,96460.41
2023-01-08T07:13:57.926Z,96465.53
2023-01-08T07:16:24.668Z,96464.72
2023-01-08T07:18:51.202Z,96471.16
2023-01-08T07:21:17.701Z,96463.66
2023-01-08T07:23:45.582Z,96459.66
2023-01-08T07:26:12.113Z,96469.31
2023-01-08T07:28:38.593Z,96473.81
2023-01-08T07:31:06.272Z,96462.72
2023-01-08T07:33:33.187Z,96466.81
2023-01-08T07:35:59.746Z,96467.59
2023-01-08T07:38:26.503Z,96465.97
2023-01-08T07:40:53.593Z,96467.06
2023-01-08T07:43:20.522Z,96471.88
2023-01-08T07:45:47.028Z,96477.78
2023-01-08T07:48:16.562Z,96475.06
2023-01-08T07:50:44.252Z,96463.72
2023-01-08T07:53:12.707Z,96463.72
2023-01-08T07:55:39.312Z,96475.56
2023-01-08T07:58:10.112Z,96480.06
2023-01-08T08:00:36.639Z,96463.03
2023-01-08T08:03:07.412Z,96469.50
2023-01-08T08:05:34.738Z,96462.41
2023-01-08T08:08:01.434Z,96463.53
2023-01-08T08:10:28.361Z,96468.59
2023-01-08T08:12:54.860Z,96459.47
2023-01-08T08:15:21.385Z,96469.69
2023-01-08T08:17:48.771Z,96472.56
2023-01-08T08:20:16.123Z,96459.91
2023-01-08T08:22:42.900Z,96454.03
2023-01-08T08:25:09.736Z,96456.41
2023-01-08T08:27:36.296Z,96455.34
2023-01-08T08:30:03.957Z,96445.91
2023-01-08T08:32:30.468Z,96459.91
2023-01-08T08:34:56.931Z,96444.59
2023-01-08T08:37:23.365Z,96447.28
2023-01-08T08:39:49.770Z,96447.81
2023-01-08T08:42:16.351Z,96453.19
2023-01-08T08:44:43.192Z,96445.13
2023-01-08T08:47:10.338Z,96447.34
2023-01-08T08:49:36.890Z,96446.00
2023-01-08T08:52:04.413Z,96442.59
2023-01-08T08:54:31.206Z,96431.00
2023-01-08T08:56:57.661Z,96437.94
2023-01-08T08:59:24.291Z,96427.44
2023-01-08T09:01:50.859Z,96437.16
2023-01-08T09:04:17.496Z,96438.19
2023-01-08T09:06:43.890Z,96434.72
2023-01-08T09:09:10.385Z,96438.72
2023-01-08T09:11:36.985Z,96440.03
2023-01-08T09:14:03.443Z,96441.16
2023-01-08T09:16:29.941Z,96430.63
2023-01-08T09:18:56.533Z,96437.34
2023-01-08T09:21:22.998Z,96445.72
2023-01-08T09:23:49.810Z,96437.63
2023-01-08T09:26:16.273Z,96434.03
2023-01-08T09:28:42.754Z,96437.16
2023-01-08T09:31:09.211Z,96436.31
2023-01-08T09:33:35.799Z,96441.75
2023-01-08T09:36:02.263Z,96440.09
2023-01-08T09:38:30.016Z,96445.47
2023-01-08T09:41:09.438Z,96455.41
2023-01-08T09:43:39.069Z,96446.84
2023-01-08T09:46:07.676Z,96438.53
2023-01-08T09:48:39.902Z,96447.16
2023-01-08T09:51:13.415Z,96445.22
2023-01-08T09:53:40.341Z,96446.84
2023-01-08T09:56:15.765Z,96448.78
2023-01-08T09:58:50.988Z,96453.97
2023-01-08T10:01:27.363Z,96454.28
2023-01-08T10:04:00.349Z,96451.16
2023-01-08T10:06:26.770Z,96453.03
2023-01-08T10:08:53.337Z,96444.41
2023-01-08T10:11:20.747Z,96449.00
2023-01-08T10:13:54.379Z,96456.34
2023-01-08T10:16:30.926Z,96448.03
2023-01-08T10:18:59.715Z,96445.81
2023-01-08T10:21:32.979Z,96453.41
2023-01-08T10:23:59.449Z,96442.44
2023-01-08T10:26:36.458Z,96444.06
2023-01-08T10:29:20.885Z,96441.13
2023-01-08T10:31:53.607Z,96435.44
2023-01-08T10:34:42.668Z,96433.09
2023-01-08T10:37:23.677Z,96426.38
2023-01-08T10:39:51.689Z,96421.59
2023-01-08T10:42:20.769Z,96422.31
2023-01-08T10:45:00.787Z,96424.00
2023-01-08T10:47:30.744Z,96424.13
2023-01-08T10:49:58.787Z,96424.84
2023-01-08T10:52:34.346Z,96422.97
2023-01-08T10:55:32.984Z,96425.97
2023-01-08T10:58:02.629Z,96426.88
2023-01-08T11:00:34.363Z,96420.41
2023-01-08T11:03:02.037Z,96407.03
2023-01-08T11:05:43.045Z,96404.59
2023-01-08T11:08:17.800Z,96404.84
2023-01-08T11:10:54.178Z,96404.06
2023-01-08T11:13:20.709Z,96395.25
2023-01-08T11:15:56.874Z,96379.88
2023-01-08T11:18:27.019Z,96381.31
2023-01-08T11:21:06.040Z,96374.06
2023-01-08T11:23:32.612Z,96375.69
2023-01-08T11:26:07.619Z,96374.59
2023-01-08T11:29:15.020Z,96367.31
2023-01-08T11:32:18.980Z,96365.75
2023-01-08T11:35:00.867Z,96355.56
2023-01-08T11:37:27.254Z,96361.28
2023-01-08T11:39:55.621Z,96354.56
2023-01-08T11:42:56.054Z,96347.84
2023-01-08T11:45:36.696Z,96349.41
2023-01-08T11:48:38.745Z,96347.53
2023-01-08T11:51:05.112Z,96335.97
2023-01-08T11:53:41.271Z,96345.13
2023-01-08T11:56:10.448Z,96336.78
2023-01-08T11:59:14.239Z,96327.34
2023-01-08T12:01:55.996Z,96321.38
2023-01-08T12:04:42.415Z,96316.84
2023-01-08T12:07:19.036Z,96303.09
2023-01-08T12:10:05.103Z,96298.22
2023-01-08T12:12:50.859Z,96278.06
2023-01-08T12:15:26.458Z,96281.78
2023-01-08T12:18:14.430Z,96284.25
2023-01-08T12:20:50.577Z,96286.69
2023-01-08T12:23:56.111Z,96282.94
2023-01-08T12:26:41.429Z,96273.22
2023-01-08T12:29:42.320Z,96277.25
2023-01-08T12:32:29.231Z,96275.31
2023-01-08T12:35:10.928Z,96282.91
2023-01-08T12:37:55.209Z,96286.63
2023-01-08T12:40:32.997Z,96297.91
2023-01-08T12:43:05.082Z,96296.28
2023-01-08T12:45:43.224Z,96285.50
2023-01-08T12:48:19.508Z,96277.44
2023-01-08T12:51:30.363Z,96272.59
2023-01-08T12:54:23.324Z,96277.16
2023-01-08T12:57:01.931Z,96272.84
2023-01-08T12:59:53.050Z,96280.91
2023-01-08T13:02:47.563Z,96269.38
2023-01-08T13:05:31.096Z,96264.25
2023-01-08T13:08:00.222Z,96252.91
2023-01-08T13:10:39.103Z,96257.84
2023-01-08T13:13:08.253Z,96251.06
2023-01-08T13:15:36.091Z,96243.25
2023-01-08T13:18:18.910Z,96247.63
2023-01-08T13:20:59.619Z,96248.69
2023-01-08T13:23:28.983Z,96250.59
2023-01-08T13:25:57.975Z,96253.81
2023-01-08T13:28:34.884Z,96246.53
2023-01-08T13:31:19.691Z,96240.59
2023-01-08T13:33:47.793Z,96220.41
2023-01-08T13:36:26.113Z,96215.00
2023-01-08T13:39:11.704Z,96219.06
2023-01-08T13:41:42.689Z,96219.84
2023-01-08T13:44:29.060Z,96219.84
2023-01-08T13:46:58.553Z,96217.38
2023-01-08T13:49:40.991Z,96209.81
2023-01-08T13:52:29.066Z,96210.59
2023-01-08T13:54:56.058Z,96207.88
2023-01-08T13:57:23.587Z,96220.00
2023-01-08T13:59:55.144Z,96211.66
2023-01-08T14:02:24.834Z,96200.88
2023-01-08T14:04:51.923Z,96174.75
2023-01-08T14:07:18.885Z,96188.00
2023-01-08T14:09:45.343Z,96191.53
2023-01-08T14:12:20.248Z,96191.06
2023-01-08T14:14:50.598Z,96188.63
2023-01-08T14:17:18.931Z,96184.00
2023-01-08T14:19:46.113Z,96189.91
2023-01-08T14:22:19.163Z,96192.59
2023-01-08T14:24:49.648Z,96182.06
2023-01-08T14:27:28.473Z,96176.69
2023-01-08T14:29:55.772Z,96175.59
2023-01-08T14:32:25.959Z,96180.44
2023-01-08T14:34:54.503Z,96178.56
2023-01-08T14:37:21.052Z,96182.91
2023-01-08T14:39:55.137Z,96171.03
2023-01-08T14:42:42.632Z,96180.47
2023-01-08T14:45:20.750Z,96168.03
2023-01-08T14:47:53.096Z,96167.78
2023-01-08T14:50:26.570Z,96161.84
2023-01-08T14:52:57.448Z,96156.19
2023-01-08T14:55:25.197Z,96153.47
2023-01-08T14:57:54.551Z,96154.53
2023-01-08T15:00:27.871Z,96138.63
2023-01-08T15:02:54.536Z,96150.75
2023-01-08T15:05:27.892Z,96148.59
2023-01-08T15:08:22.902Z,96136.97
2023-01-08T15:11:08.908Z,96133.16
2023-01-08T15:13:38.143Z,96132.06
2023-01-08T15:16:28.178Z,96137.69
2023-01-08T15:19:05.329Z,96127.97
2023-01-08T15:21:32.616Z,96128.47
2023-01-08T15:23:59.976Z,96133.03
2023-01-08T15:26:27.081Z,96128.69
2023-01-08T15:29:00.873Z,96125.69
2023-01-08T15:31:33.402Z,96124.31
2023-01-08T15:34:00.812Z,96119.19
2023-01-08T15:36:27.488Z,96123.72
2023-01-08T15:38:54.076Z,96122.13
2023-01-08T15:41:41.082Z,96110.25
2023-01-08T15:44:09.579Z,96101.91
2023-01-08T15:46:36.095Z,96112.66
2023-01-08T15:49:02.586Z,96112.63
2023-01-08T15:51:33.249Z,96105.84
2023-01-08T15:54:00.476Z,96110.69
2023-01-08T15:56:27.287Z,96111.44
2023-01-08T15:58:53.736Z,96094.53
2023-01-08T16:01:20.514Z,96093.69
2023-01-08T16:03:48.342Z,96096.88
2023-01-08T16:06:14.826Z,96104.91
2023-01-08T16:08:45.795Z,96100.91
2023-01-08T16:11:17.651Z,96113.06
2023-01-08T16:13:44.294Z,96098.47
2023-01-08T16:16:12.712Z,96090.94
2023-01-08T16:18:39.368Z,96095.31
2023-01-08T16:21:07.324Z,96076.22
2023-01-08T16:23:35.626Z,96069.78
2023-01-08T16:26:11.780Z,96063.63
2023-01-08T16:28:38.392Z,96072.13
2023-01-08T16:31:05.563Z,96055.66
2023-01-08T16:33:32.055Z,96053.28
2023-01-08T16:36:00.412Z,96057.81
2023-01-08T16:38:27.162Z,96052.06
2023-01-08T16:40:54.421Z,96054.06
2023-01-08T16:43:20.861Z,96056.78
2023-01-08T16:45:48.240Z,96046.91
2023-01-08T16:48:15.289Z,96043.63
2023-01-08T16:50:43.211Z,96041.75
2023-01-08T16:53:10.167Z,96038.47
2023-01-08T16:55:37.869Z,96051.19
2023-01-08T16:58:05.103Z,96037.00
2023-01-08T17:00:31.975Z,96037.19
2023-01-08T17:02:58.608Z,96035.81
2023-01-08T17:05:25.218Z,96047.72
2023-01-08T17:07:53.119Z,96034.78
2023-01-08T17:10:21.641Z,96022.13
2023-01-08T17:12:48.215Z,96017.50
2023-01-08T17:15:15.090Z,96009.47
2023-01-08T17:17:41.860Z,96003.34
2023-01-08T17:20:09.369Z,95991.72
2023-01-08T17:22:35.762Z,95983.75
2023-01-08T17:25:02.254Z,95988.03
2023-01-08T17:27:28.803Z,95980.75
2023-01-08T17:29:55.315Z,95978.69
2023-01-08T17:32:22.074Z,95976.03
2023-01-08T17:34:48.477Z,95965.03
2023-01-08T17:37:15.427Z,95955.38
2023-01-08T17:39:43.625Z,95948.84
2023-01-08T17:42:25.531Z,95959.41
2023-01-08T17:44:51.948Z,95957.88
2023-01-08T17:47:19.776Z,95956.31
2023-01-08T17:49:54.305Z,95956.34
2023-01-08T17:52:22.964Z,95946.97
2023-01-08T17:54:52.745Z,95948.63
2023-01-08T17:57:21.047Z,95950.81
2023-01-08T17:59:48.496Z,95937.09
2023-01-08T18:02:16.520Z,95941.41
2023-01-08T18:04:45.352Z,95937.38
2023-01-08T18:07:11.856Z,95937.66
2023-01-08T18:09:38.579Z,95927.97
2023-01-08T18:12:05.221Z,95918.28
2023-01-08T18:14:31.693Z,95924.50
2023-01-08T18:16:58.093Z,95927.97
2023-01-08T18:19:26.129Z,95930.91
2023-01-08T18:21:52.611Z,95927.69
2023-01-08T18:24:19.150Z,95920.97
2023-01-08T18:26:46.523Z,95918.00
2023-01-08T18:29:13.258Z,95912.91
2023-01-08T18:31:40.222Z,95912.63
2023-01-08T18:34:08.813Z,95905.09
2023-01-08T18:36:36.613Z,95905.59
2023-01-08T18:39:03.565Z,95914.75
2023-01-08T18:41:48.412Z,95913.41
2023-01-08T18:44:14.925Z,95911.75
2023-01-08T18:46:41.456Z,95912.03
2023-01-08T18:49:08.017Z,95906.38
2023-01-08T18:51:34.499Z,95896.09
2023-01-08T18:54:00.949Z,95901.72
2023-01-08T18:56:31.147Z,95901.19
2023-01-08T18:58:58.128Z,95899.53
2023-01-08T19:01:24.989Z,95900.34
2023-01-08T19:03:51.851Z,95893.56
2023-01-08T19:06:18.492Z,95889.56
2023-01-08T19:08:45.234Z,95882.56
2023-01-08T19:11:12.258Z,95887.94
2023-01-08T19:13:39.093Z,95884.13
2023-01-08T19:16:07.398Z,95876.59
2023-01-08T19:18:34.522Z,95860.75
2023-01-08T19:21:01.229Z,95860.50
2023-01-08T19:23:28.286Z,95866.97
2023-01-08T19:25:55.108Z,95859.72
2023-01-08T19:28:21.557Z,95844.72
2023-01-08T19:30:58.517Z,95843.13
2023-01-08T19:33:25.370Z,95838.25
2023-01-08T19:35:52.144Z,95835.31
2023-01-08T19:38:19.262Z,95834.78
2023-01-08T19:40:45.746Z,95831.59
2023-01-08T19:43:31.613Z,95835.13
2023-01-08T19:46:05.463Z,95826.47
2023-01-08T19:48:32.470Z,95825.94
2023-01-08T19:50:59.564Z,95823.25
2023-01-08T19:53:26.025Z,95817.06
2023-01-08T19:55:52.481Z,95817.34
2023-01-08T19:58:20.372Z,95813.03
2023-01-08T20:00:46.905Z,95814.38
2023-01-08T20:03:13.674Z,95811.16
2023-01-08T20:05:41.495Z,95807.38
2023-01-08T20:08:07.975Z,95806.59
2023-01-08T20:10:34.431Z,95801.75
2023-01-08T20:13:00.971Z,95811.41
2023-01-08T20:15:28.900Z,95800.09
2023-01-08T20:17:55.626Z,95797.97
2023-01-08T20:20:22.062Z,95802.22
2023-01-08T20:22:48.586Z,95797.91
2023-01-08T20:25:15.190Z,95798.44
2023-01-08T20:27:41.651Z,95794.38
2023-01-08T20:30:10.276Z,95791.69
2023-01-08T20:32:37.077Z,95787.66
2023-01-08T20:35:04.744Z,95784.94
2023-01-08T20:37:31.463Z,95777.94
2023-01-08T20:39:57.864Z,95780.63
2023-01-08T20:42:33.482Z,95781.16
2023-01-08T20:45:00.697Z,95776.59
2023-01-08T20:47:27.294Z,95779.28
2023-01-08T20:49:53.773Z,95771.47
2023-01-08T20:52:20.266Z,95765.28
2023-01-08T20:54:46.763Z,95765.00
2023-01-08T20:57:13.377Z,95755.84
2023-01-08T20:59:40.134Z,95750.47
2023-01-08T21:02:07.048Z,95755.00
2023-01-08T21:04:33.601Z,95749.38
2023-01-08T21:07:00.232Z,95746.34
2023-01-08T21:09:26.771Z,95753.63
2023-01-08T21:11:53.332Z,95740.13
2023-01-08T21:14:19.836Z,95733.41
2023-01-08T21:16:46.405Z,95733.16
2023-01-08T21:19:14.772Z,95718.63
2023-01-08T21:21:41.818Z,95721.06
2023-01-08T21:24:11.399Z,95722.97
2023-01-08T21:26:38.934Z,95715.19
2023-01-08T21:29:06.844Z,95715.44
2023-01-08T21:31:35.001Z,95702.28
2023-01-08T21:34:03.193Z,95703.34
2023-01-08T21:36:31.549Z,95697.41
2023-01-08T21:39:00.485Z,95697.16
2023-01-08T21:41:47.389Z,95691.50
2023-01-08T21:44:43.879Z,95689.34
2023-01-08T21:47:17.082Z,95677.81
2023-01-08T21:49:44.902Z,95668.44
2023-01-08T21:52:29.959Z,95661.19
2023-01-08T21:54:58.150Z,95657.41
2023-01-08T21:57:27.582Z,95654.44
2023-01-08T21:59:54.475Z,95638.31
2023-01-08T22:02:23.133Z,95629.44
2023-01-08T22:04:49.970Z,95629.72
2023-01-08T22:07:16.610Z,95633.47
2023-01-08T22:09:43.077Z,95636.44
2023-01-08T22:12:09.615Z,95630.50
2023-01-08T22:14:36.305Z,95625.13
2023-01-08T22:17:04.060Z,95619.25
2023-01-08T22:19:31.075Z,95626.22
2023-01-08T22:21:57.584Z,95612.25
2023-01-08T22:24:23.971Z,95613.88
2023-01-08T22:26:50.450Z,95606.38
2023-01-08T22:29:17.161Z,95609.31
2023-01-08T22:31:44.771Z,95617.66
2023-01-08T22:34:16.819Z,95611.25
2023-01-08T22:36:44.130Z,95609.38
2023-01-08T22:39:10.987Z,95603.72
2023-01-08T22:41:37.762Z,95606.97
2023-01-08T22:44:04.338Z,95613.69
2023-01-08T22:46:31.673Z,95608.03
2023-01-08T22:48:58.259Z,95606.97
2023-01-08T22:51:27.791Z,95608.56
2023-01-08T22:53:58.906Z,95606.97
2023-01-08T22:56:26.317Z,95608.81
2023-01-08T22:58:53.354Z,95600.78
2023-01-08T23:01:25.170Z,95606.16
2023-01-08T23:03:53.636Z,95596.75
2023-01-08T23:06:21.969Z,95595.88
2023-01-08T23:08:49.070Z,95594.81
2023-01-08T23:11:17.835Z,95598.56
2023-01-08T23:13:44.909Z,95606.63
2023-01-08T23:16:14.431Z,95613.34
2023-01-08T23:18:41.324Z,95618.97
2023-01-08T23:21:14.611Z,95616.84
2023-01-08T23:23:41.244Z,95610.94
2023-01-08T23:26:18.498Z,95612.84
2023-01-08T23:28:45.952Z,95619.56
2023-01-08T23:31:16.330Z,95618.75
2023-01-08T23:33:42.900Z,95615.53
2023-01-08T23:36:10.278Z,95618.19
2023-01-08T23:38:36.695Z,95609.91
2023-01-08T23:41:06.521Z,95611.25
2023-01-08T23:43:33.113Z,95609.13
2023-01-08T23:46:06.376Z,95609.66
2023-01-08T23:48:33.681Z,95598.06
2023-01-08T23:51:00.209Z,95597.22
2023-01-08T23:53:27.377Z,95593.19
2023-01-08T23:55:53.957Z,95594.81
2023-01-08T23:58:20.719Z,95595.41
